Time;durP1;ratioP1;P1;durP2;ratioP2;P2;SDS_P1;SDS_P2;PMS_P1;PMS_P2;Temp;Humidity;BMP_temperature;BMP_pressure;BME280_temperature;BME280_humidity;BME280_pressure;Samples;Min_cycle;Max_cycle;Signal;HPM_P1;HPM_P2
2023/03/11 00:00:57;;;;;;;3.83;1.05;;;;;;;18.58;41.83;100620.34;5023668;28;20029;-68
2023/03/11 00:03:23;;;;;;;2.83;0.98;;;;;;;18.54;41.98;100616.31;5032799;28;20052;-68
2023/03/11 00:05:49;;;;;;;4.15;1.00;;;;;;;18.56;41.77;100619.63;5033721;28;20041;-68
2023/03/11 00:08:18;;;;;;;4.63;1.10;;;;;;;18.51;41.71;100614.75;5035548;28;20248;-68
2023/03/11 00:10:44;;;;;;;3.65;1.20;;;;;;;18.53;41.72;100622.53;5032965;28;20039;-68
2023/03/11 00:13:12;;;;;;;4.40;1.10;;;;;;;18.50;41.80;100623.66;5032610;28;20052;-68
2023/03/11 00:15:38;;;;;;;4.55;1.13;;;;;;;18.48;41.67;100628.22;5032491;28;20448;-70
2023/03/11 00:18:04;;;;;;;4.15;1.00;;;;;;;18.46;41.51;100628.34;5031837;28;20477;-67
2023/03/11 00:20:36;;;;;;;5.50;1.50;;;;;;;18.45;41.54;100637.25;5033139;28;20103;-68
2023/03/11 00:23:03;;;;;;;3.15;1.20;;;;;;;18.40;41.34;100625.41;5032959;28;20458;-69
2023/03/11 00:25:30;;;;;;;3.25;1.13;;;;;;;18.40;41.48;100635.97;5032374;28;20048;-69
2023/03/11 00:27:55;;;;;;;3.80;1.20;;;;;;;18.39;41.72;100643.03;5027523;28;20439;-69
2023/03/11 00:30:22;;;;;;;4.53;1.23;;;;;;;18.36;41.45;100640.66;5032443;28;20033;-69
2023/03/11 00:32:48;;;;;;;4.47;1.23;;;;;;;18.31;41.35;100635.78;5032181;28;20037;-68
2023/03/11 00:35:18;;;;;;;3.88;1.10;;;;;;;18.34;41.42;100649.66;5031918;28;20533;-70
2023/03/11 00:37:45;;;;;;;3.22;1.10;;;;;;;18.33;41.56;100655.94;5032119;28;20040;-70
2023/03/11 00:40:16;;;;;;;3.78;1.45;;;;;;;18.29;41.56;100656.19;5032227;28;20064;-68
2023/03/11 00:42:42;;;;;;;3.67;1.20;;;;;;;18.29;41.23;100657.97;5032825;28;20711;-70
2023/03/11 00:45:08;;;;;;;3.53;1.00;;;;;;;18.29;41.28;100669.38;5031831;28;20038;-68
2023/03/11 00:47:33;;;;;;;4.13;1.30;;;;;;;18.25;41.38;100659.22;5032162;28;20470;-68
2023/03/11 00:49:58;;;;;;;4.22;1.00;;;;;;;18.26;41.80;100659.09;5031164;28;20064;-68
2023/03/11 00:52:24;;;;;;;3.72;1.08;;;;;;;18.25;41.67;100660.03;5022649;28;20029;-69
2023/03/11 00:54:49;;;;;;;3.08;1.02;;;;;;;18.22;41.65;100662.94;5032239;28;20041;-69
2023/03/11 00:57:14;;;;;;;3.80;1.10;;;;;;;18.25;41.54;100669.75;5031725;28;20393;-70
2023/03/11 00:59:40;;;;;;;4.40;1.30;;;;;;;18.21;41.69;100671.81;5031404;28;20118;-70
2023/03/11 01:02:05;;;;;;;4.53;1.10;;;;;;;18.17;41.62;100670.41;5031650;28;20060;-66
2023/03/11 01:04:30;;;;;;;2.60;0.80;;;;;;;18.20;41.73;100672.78;5031607;28;20033;-68
2023/03/11 01:06:55;;;;;;;4.53;1.20;;;;;;;18.20;41.59;100685.97;5031581;28;20033;-67
2023/03/11 01:09:21;;;;;;;5.32;1.20;;;;;;;18.18;41.61;100689.69;5029545;28;20037;-68
2023/03/11 01:11:46;;;;;;;4.53;0.98;;;;;;;18.17;41.62;100698.59;5030956;28;20041;-68
2023/03/11 01:14:12;;;;;;;2.83;1.00;;;;;;;18.16;41.37;100697.75;5031380;28;20065;-69
2023/03/11 01:16:37;;;;;;;3.63;0.90;;;;;;;18.13;41.56;100698.00;5031801;28;20040;-68
2023/03/11 01:19:02;;;;;;;3.20;1.00;;;;;;;18.15;41.55;100695.22;5030790;28;20137;-69
2023/03/11 01:21:28;;;;;;;3.67;1.23;;;;;;;18.12;41.24;100701.63;5031435;28;20601;-68
2023/03/11 01:23:53;;;;;;;4.45;1.20;;;;;;;18.10;41.54;100709.66;5030932;28;20453;-68
2023/03/11 01:26:18;;;;;;;2.58;0.82;;;;;;;18.10;41.43;100701.75;5031665;28;20052;-69
2023/03/11 01:28:44;;;;;;;3.17;1.10;;;;;;;18.05;41.41;100703.91;5030968;28;20033;-68
2023/03/11 01:31:10;;;;;;;4.07;1.20;;;;;;;18.04;41.46;100712.78;5030912;28;20051;-69
2023/03/11 01:33:35;;;;;;;2.90;0.80;;;;;;;18.02;41.32;100703.31;5031128;28;20041;-69
2023/03/11 01:36:00;;;;;;;3.80;1.00;;;;;;;18.05;41.62;100714.44;5030986;28;20026;-69
2023/03/11 01:38:26;;;;;;;4.80;0.90;;;;;;;18.04;41.40;100710.16;5030691;28;20405;-69
2023/03/11 01:40:51;;;;;;;6.03;1.50;;;;;;;18.00;41.63;100713.16;5031626;28;20033;-69
2023/03/11 01:43:42;;;;;;;3.53;1.10;;;;;;;17.98;41.43;100710.66;5031168;28;20060;-69
2023/03/11 01:46:13;;;;;;;4.82;1.25;;;;;;;18.02;41.64;100716.50;5030946;28;20041;-70
2023/03/11 01:48:41;;;;;;;3.35;1.02;;;;;;;17.96;41.49;100712.59;5030878;28;20098;-69
2023/03/11 01:51:07;;;;;;;3.88;0.90;;;;;;;17.95;41.58;100709.09;5031072;28;20041;-70
2023/03/11 01:53:32;;;;;;;3.53;1.00;;;;;;;17.94;41.50;100709.22;5030857;28;20033;-71
2023/03/11 01:55:58;;;;;;;5.18;1.30;;;;;;;17.93;41.49;100708.41;5031333;28;20603;-68
2023/03/11 01:58:29;;;;;;;4.78;1.17;;;;;;;17.96;41.49;100715.22;5030304;28;20044;-69
2023/03/11 02:00:55;;;;;;;3.40;1.23;;;;;;;17.94;41.23;100717.13;5030964;28;20037;-68
2023/03/11 02:03:28;;;;;;;4.13;1.10;;;;;;;17.90;41.49;100707.81;5030726;28;20067;-69
2023/03/11 02:05:55;;;;;;;3.78;1.10;;;;;;;17.89;41.41;100711.41;5031085;28;20477;-69
2023/03/11 02:08:21;;;;;;;3.25;1.02;;;;;;;17.88;41.38;100709.72;5030577;28;20033;-68
2023/03/11 02:10:47;;;;;;;3.60;1.00;;;;;;;17.86;41.22;100703.72;5035484;28;20025;-68
2023/03/11 02:13:13;;;;;;;3.67;1.15;;;;;;;17.85;41.41;100707.31;5034873;28;20083;-70
2023/03/11 02:15:38;;;;;;;3.83;1.05;;;;;;;17.85;41.38;100713.44;5035142;28;20037;-68
2023/03/11 02:18:05;;;;;;;3.92;1.02;;;;;;;17.86;41.53;100716.91;5035123;28;20053;-68
2023/03/11 02:20:47;;;;;;;3.92;1.10;;;;;;;17.81;41.30;100713.81;5034118;28;20049;-68
2023/03/11 02:23:14;;;;;;;3.75;0.80;;;;;;;17.83;41.34;100714.53;5034503;28;20091;-69
2023/03/11 02:25:49;;;;;;;6.55;1.10;;;;;;;17.82;41.27;100718.97;5034647;28;20037;-70
2023/03/11 02:28:17;;;;;;;2.95;1.10;;;;;;;17.82;41.38;100723.41;5034419;28;20160;-69
2023/03/11 02:30:43;;;;;;;4.63;1.15;;;;;;;17.79;41.27;100727.13;5033955;28;20032;-66
2023/03/11 02:33:11;;;;;;;2.60;0.88;;;;;;;17.81;41.47;100725.19;5035129;28;20056;-69
2023/03/11 02:35:36;;;;;;;2.03;0.82;;;;;;;17.81;41.62;100725.19;5034569;28;20037;-69
2023/03/11 02:38:02;;;;;;;3.22;1.02;;;;;;;17.77;41.58;100718.50;5033922;28;20116;-67
2023/03/11 02:40:35;;;;;;;4.47;1.25;;;;;;;17.77;41.43;100715.88;5024780;28;20057;-68
2023/03/11 02:43:10;;;;;;;5.72;1.15;;;;;;;17.73;41.34;100719.72;5034061;28;20037;-68
2023/03/11 02:45:38;;;;;;;2.67;1.00;;;;;;;17.76;41.26;100719.47;5034676;28;20115;-68
2023/03/11 02:48:07;;;;;;;3.83;1.10;;;;;;;17.75;41.56;100716.00;5033965;28;20413;-68
2023/03/11 02:50:35;;;;;;;3.95;1.00;;;;;;;17.73;41.24;100720.53;5034124;28;20082;-70
2023/03/11 02:53:01;;;;;;;4.72;1.42;;;;;;;17.64;41.57;100704.63;5033928;28;20136;-69
2023/03/11 02:55:26;;;;;;;2.97;0.85;;;;;;;17.73;41.63;100714.44;5032612;28;20124;-69
2023/03/11 02:57:51;;;;;;;4.53;1.23;;;;;;;17.70;41.43;100712.06;5033956;28;20048;-69
2023/03/11 03:00:17;;;;;;;3.63;0.95;;;;;;;17.71;41.24;100709.28;5033508;28;20120;-69
2023/03/11 03:02:44;;;;;;;4.13;1.40;;;;;;;17.71;41.42;100711.09;5033903;28;20068;-68
2023/03/11 03:05:10;;;;;;;4.43;1.00;;;;;;;17.69;41.29;100720.91;5034441;28;20033;-69
2023/03/11 03:07:36;;;;;;;4.15;1.30;;;;;;;17.66;41.13;100721.19;5034173;28;20047;-69
2023/03/11 03:10:03;;;;;;;5.30;1.35;;;;;;;17.67;41.14;100715.75;5033746;28;20026;-68
2023/03/11 03:12:29;;;;;;;4.13;1.23;;;;;;;17.65;41.34;100724.78;5024240;28;20095;-68
2023/03/11 03:14:54;;;;;;;2.88;0.90;;;;;;;17.65;41.18;100724.78;5033692;28;20056;-69
2023/03/11 03:17:19;;;;;;;2.90;0.90;;;;;;;17.65;41.28;100736.16;5033866;28;20039;-68
2023/03/11 03:19:45;;;;;;;4.80;1.20;;;;;;;17.66;41.56;100740.47;5033271;28;20055;-68
2023/03/11 03:22:10;;;;;;;2.42;0.82;;;;;;;17.62;41.40;100741.66;5033742;28;20076;-68
2023/03/11 03:24:35;;;;;;;3.50;1.10;;;;;;;17.62;41.37;100751.38;5034007;28;20071;-68
2023/03/11 03:27:01;;;;;;;3.47;1.15;;;;;;;17.61;41.41;100754.97;5033508;28;20136;-69
2023/03/11 03:29:26;;;;;;;3.60;1.23;;;;;;;17.61;41.51;100752.31;5032593;28;20028;-69
2023/03/11 03:31:51;;;;;;;3.25;1.00;;;;;;;17.59;41.25;100762.97;5034084;28;20037;-67
2023/03/11 03:34:17;;;;;;;2.78;0.93;;;;;;;17.60;41.11;100767.31;5033471;28;20116;-67
2023/03/11 03:36:42;;;;;;;4.68;1.33;;;;;;;17.61;41.12;100768.13;5032071;28;20123;-67
2023/03/11 03:39:07;;;;;;;3.25;0.90;;;;;;;17.59;41.39;100769.13;5031956;28;20377;-67
2023/03/11 03:41:32;;;;;;;3.47;1.00;;;;;;;17.59;41.44;100774.38;5033175;28;20044;-68
2023/03/11 03:43:58;;;;;;;3.05;0.90;;;;;;;17.58;41.31;100785.03;5033344;28;20033;-68
2023/03/11 03:46:24;;;;;;;3.35;0.80;;;;;;;17.57;41.29;100781.56;5033271;28;20103;-67
2023/03/11 03:48:49;;;;;;;3.83;1.10;;;;;;;17.57;41.40;100783.34;5032675;28;20036;-68
2023/03/11 03:51:15;;;;;;;2.90;0.95;;;;;;;17.55;41.44;100782.66;5033464;28;20481;-68
2023/03/11 03:53:41;;;;;;;3.90;1.08;;;;;;;17.54;41.27;100788.88;5032635;28;20041;-68
2023/03/11 03:56:15;;;;;;;4.15;1.00;;;;;;;17.54;41.09;100786.25;5033079;28;20037;-69
2023/03/11 03:58:40;;;;;;;3.50;0.93;;;;;;;17.54;41.15;100792.34;5032961;28;20488;-71
2023/03/11 04:01:07;;;;;;;4.13;1.10;;;;;;;17.51;41.01;100786.47;5031904;28;20126;-69
2023/03/11 04:03:34;;;;;;;4.63;1.20;;;;;;;17.47;41.32;100790.34;5023289;28;20112;-67
2023/03/11 04:06:19;;;;;;;4.32;1.02;;;;;;;17.51;41.22;100802.28;5031820;28;20041;-68
2023/03/11 04:08:44;;;;;;;3.40;1.00;;;;;;;17.48;41.15;100792.00;5030990;28;20140;-67
2023/03/11 04:11:10;;;;;;;3.88;0.90;;;;;;;17.49;41.20;100791.03;5031068;28;20132;-69
2023/03/11 04:13:36;;;;;;;2.75;0.95;;;;;;;17.39;41.18;100777.75;5028121;28;20032;-69
2023/03/11 04:16:06;;;;;;;4.05;1.27;;;;;;;17.48;41.34;100799.91;5032616;28;20037;-69
2023/03/11 04:18:32;;;;;;;3.25;1.00;;;;;;;17.45;41.35;100797.50;5031963;28;20140;-69
2023/03/11 04:20:57;;;;;;;3.55;0.82;;;;;;;17.46;41.40;100796.56;5031859;28;20033;-69
2023/03/11 04:23:23;;;;;;;4.68;0.90;;;;;;;17.47;41.32;100790.34;5022790;28;20047;-69
2023/03/11 04:25:48;;;;;;;2.67;0.98;;;;;;;17.43;41.18;100791.53;5031878;28;20079;-69
2023/03/11 04:28:13;;;;;;;2.90;0.90;;;;;;;17.43;41.51;100794.16;5032487;28;20030;-69
2023/03/11 04:30:39;;;;;;;3.47;1.00;;;;;;;17.45;41.45;100800.13;5031813;28;21007;-68
2023/03/11 04:33:04;;;;;;;4.07;1.10;;;;;;;17.41;41.21;100796.91;5031595;28;20044;-68
2023/03/11 04:35:29;;;;;;;2.83;0.98;;;;;;;17.45;41.35;100803.63;5032430;28;20033;-69
2023/03/11 04:37:54;;;;;;;3.45;1.00;;;;;;;17.43;41.11;100804.69;5031610;28;20037;-68
2023/03/11 04:40:20;;;;;;;3.17;1.00;;;;;;;17.45;41.47;100808.03;5032246;28;20087;-69
2023/03/11 04:42:45;;;;;;;3.60;0.95;;;;;;;17.45;41.17;100808.03;5032193;28;20040;-68
2023/03/11 04:45:11;;;;;;;3.65;1.17;;;;;;;17.45;41.59;100806.25;5032280;28;20030;-69
2023/03/11 04:47:36;;;;;;;3.38;0.90;;;;;;;17.42;41.41;100803.88;5032129;28;20040;-69
2023/03/11 04:50:02;;;;;;;4.38;1.08;;;;;;;17.40;41.31;100805.75;5031808;28;20090;-69
2023/03/11 04:52:27;;;;;;;4.07;1.08;;;;;;;17.34;41.18;100796.56;5031760;28;20033;-68
2023/03/11 04:54:53;;;;;;;2.30;0.90;;;;;;;17.40;41.14;100798.72;5031189;28;20059;-69
2023/03/11 04:57:18;;;;;;;3.08;0.80;;;;;;;17.44;41.51;100803.75;5031776;28;20335;-69
2023/03/11 04:59:43;;;;;;;2.55;0.98;;;;;;;17.43;41.41;100805.53;5032046;28;20492;-69
2023/03/11 05:02:09;;;;;;;2.75;0.95;;;;;;;17.40;41.78;100796.09;5031640;28;20045;-68
2023/03/11 05:04:34;;;;;;;3.63;1.00;;;;;;;17.41;41.16;100800.38;5031453;28;20453;-67
2023/03/11 05:06:59;;;;;;;2.50;0.85;;;;;;;17.43;41.41;100802.88;5031398;28;20090;-70
2023/03/11 05:09:24;;;;;;;4.65;0.95;;;;;;;17.40;41.13;100808.41;5031402;28;20040;-68
2023/03/11 05:11:50;;;;;;;2.78;0.88;;;;;;;17.43;41.58;100808.16;5031909;28;20511;-67
2023/03/11 05:14:15;;;;;;;3.13;1.02;;;;;;;17.43;41.40;100812.59;5031200;28;20048;-68
2023/03/11 05:16:40;;;;;;;3.85;1.10;;;;;;;17.44;41.64;100816.91;5031900;28;20067;-69
2023/03/11 05:19:29;;;;;;;3.42;0.93;;;;;;;17.43;41.47;100818.69;5031163;28;20048;-68
2023/03/11 05:21:51;;;;;;;2.78;1.00;;;;;;;17.44;41.58;100814.28;5031098;28;20033;-67
2023/03/11 05:24:16;;;;;;;4.38;1.30;;;;;;;17.45;41.68;100821.22;5031533;28;20385;-66
2023/03/11 05:26:41;;;;;;;3.72;1.20;;;;;;;17.45;41.76;100826.47;5031161;28;20494;-68
2023/03/11 05:29:07;;;;;;;4.90;1.10;;;;;;;17.46;41.53;100828.16;5031316;28;20033;-68
2023/03/11 05:31:32;;;;;;;3.67;1.30;;;;;;;17.44;41.69;100832.72;5031401;28;20033;-67
2023/03/11 05:33:57;;;;;;;2.85;0.98;;;;;;;17.46;41.68;100843.97;5031047;28;20092;-68
2023/03/11 05:36:22;;;;;;;2.95;1.10;;;;;;;17.47;41.49;100849.13;5030773;28;20080;-69
2023/03/11 05:38:48;;;;;;;2.23;0.83;;;;;;;17.47;41.58;100846.50;5029775;28;20026;-68
2023/03/11 05:41:13;;;;;;;2.10;0.80;;;;;;;17.51;41.18;100852.34;5030124;28;20356;-68
2023/03/11 05:43:38;;;;;;;3.45;1.00;;;;;;;17.51;40.94;100850.53;5030124;28;20041;-66
2023/03/11 05:46:04;;;;;;;3.17;1.10;;;;;;;17.53;40.68;100847.78;5030709;28;20367;-68
2023/03/11 05:48:29;;;;;;;2.65;1.00;;;;;;;17.58;40.54;100851.75;5030980;28;20037;-69
2023/03/11 05:50:55;;;;;;;2.60;0.80;;;;;;;17.62;40.37;100852.34;5030958;28;20127;-69
2023/03/11 05:53:20;;;;;;;3.30;1.10;;;;;;;17.66;40.23;100850.31;5030852;28;20063;-68
2023/03/11 05:55:55;;;;;;;3.20;0.80;;;;;;;17.73;40.01;100854.97;5030708;28;20040;-69
2023/03/11 05:58:20;;;;;;;3.10;1.10;;;;;;;17.77;39.92;100856.41;5031098;28;20038;-68
2023/03/11 06:00:45;;;;;;;1.52;0.70;;;;;;;17.80;39.48;100857.13;5030766;28;20083;-68
2023/03/11 06:03:11;;;;;;;2.88;0.90;;;;;;;17.85;39.61;100862.84;5031022;28;20123;-68
2023/03/11 06:05:36;;;;;;;4.60;0.90;;;;;;;17.90;39.68;100864.22;5028875;28;20036;-69
2023/03/11 06:08:01;;;;;;;3.03;1.00;;;;;;;17.91;39.06;100868.53;5030889;28;20284;-69
2023/03/11 06:10:26;;;;;;;3.63;1.10;;;;;;;17.92;39.07;100864.09;5030500;28;20352;-69
2023/03/11 06:12:52;;;;;;;4.63;1.20;;;;;;;17.95;38.93;100872.59;5031161;28;20099;-69
2023/03/11 06:15:17;;;;;;;2.83;0.82;;;;;;;17.93;38.57;100866.59;5030362;28;20254;-68
2023/03/11 06:17:42;;;;;;;3.05;0.80;;;;;;;17.97;38.47;100869.00;5030999;28;20440;-68
2023/03/11 06:20:08;;;;;;;1.98;0.73;;;;;;;18.00;38.60;100868.75;5030990;28;20037;-69
2023/03/11 06:22:34;;;;;;;2.80;0.73;;;;;;;18.00;38.34;100882.75;5030959;28;20541;-68
2023/03/11 06:24:59;;;;;;;2.67;1.10;;;;;;;18.03;38.59;100884.31;5030760;28;20067;-68
2023/03/11 06:27:24;;;;;;;2.30;0.80;;;;;;;18.03;38.35;100879.06;5030969;28;20043;-68
2023/03/11 06:29:53;;;;;;;3.63;0.95;;;;;;;18.05;38.29;100898.22;5031215;28;20175;-69
2023/03/11 06:32:18;;;;;;;2.17;0.77;;;;;;;18.07;38.29;100894.50;5030810;28;20032;-69
2023/03/11 06:34:44;;;;;;;2.65;0.90;;;;;;;18.05;38.42;100890.31;5030887;28;20045;-68
2023/03/11 06:37:09;;;;;;;2.05;0.80;;;;;;;18.08;38.52;100895.34;5030630;28;20052;-67
2023/03/11 06:39:34;;;;;;;3.70;0.90;;;;;;;18.07;38.85;100905.06;5030885;28;20050;-68
2023/03/11 06:41:59;;;;;;;4.23;0.80;;;;;;;18.07;38.49;100907.69;5030614;28;21127;-68
2023/03/11 06:44:25;;;;;;;3.53;1.08;;;;;;;18.08;38.69;100912.00;5030757;28;20259;-68
2023/03/11 06:46:50;;;;;;;1.80;0.73;;;;;;;18.08;38.51;100917.25;5030692;28;20040;-68
2023/03/11 06:49:15;;;;;;;2.30;0.75;;;;;;;18.08;38.76;100917.25;5029873;28;20034;-68
2023/03/11 06:51:41;;;;;;;2.45;0.80;;;;;;;18.10;38.79;100931.19;5030442;28;20067;-68
2023/03/11 06:54:06;;;;;;;3.28;0.82;;;;;;;18.11;38.95;100926.75;5030941;28;20036;-69
2023/03/11 06:56:32;;;;;;;2.72;0.73;;;;;;;18.10;39.05;100925.06;5033797;28;20079;-69
2023/03/11 06:58:57;;;;;;;2.75;0.60;;;;;;;18.12;38.71;100937.19;5035603;28;20043;-68
2023/03/11 07:01:24;;;;;;;2.60;0.85;;;;;;;18.12;39.01;100944.25;5034700;28;20250;-68
2023/03/11 07:03:50;;;;;;;2.28;0.60;;;;;;;18.12;39.01;100949.53;5034154;28;20037;-68
2023/03/11 07:06:19;;;;;;;2.33;0.70;;;;;;;18.12;39.15;100958.28;5034568;28;20496;-70
2023/03/11 07:08:49;;;;;;;2.33;0.80;;;;;;;18.15;38.84;100958.97;5033413;28;20044;-68
2023/03/11 07:11:23;;;;;;;5.05;1.15;;;;;;;18.17;38.57;100962.34;5034654;28;20037;-67
2023/03/11 07:13:48;;;;;;;5.25;1.50;;;;;;;18.16;38.71;100958.03;5034530;28;20036;-67
2023/03/11 07:16:19;;;;;;;3.38;1.38;;;;;;;18.15;39.06;100957.19;5034030;28;20039;-66
2023/03/11 07:18:46;;;;;;;3.88;1.27;;;;;;;18.12;38.71;100955.63;5033961;28;20064;-66
2023/03/11 07:21:14;;;;;;;3.78;1.00;;;;;;;18.13;39.46;100952.06;5033854;28;20067;-67
2023/03/11 07:23:41;;;;;;;3.42;0.90;;;;;;;18.14;39.51;100966.06;5034040;28;20036;-68
2023/03/11 07:26:11;;;;;;;3.45;0.88;;;;;;;18.10;39.84;100960.19;5033739;28;20041;-68
2023/03/11 07:28:38;;;;;;;3.13;1.00;;;;;;;18.13;40.12;100964.38;5033321;28;20037;-67
2023/03/11 07:31:08;;;;;;;2.72;0.90;;;;;;;18.16;40.18;100968.59;5033589;28;20079;-68
2023/03/11 07:33:33;;;;;;;3.53;1.00;;;;;;;18.18;40.25;100969.28;5034349;28;20133;-67
2023/03/11 07:35:58;;;;;;;2.97;0.80;;;;;;;18.18;40.33;100967.47;5034424;28;20116;-68
2023/03/11 07:38:24;;;;;;;2.15;0.70;;;;;;;18.21;40.48;100975.16;5033745;28;20040;-69
2023/03/11 07:40:58;;;;;;;4.32;1.00;;;;;;;18.19;40.46;100969.16;5033302;28;20389;-69
2023/03/11 07:43:23;;;;;;;4.22;1.25;;;;;;;18.24;40.47;100977.53;5033226;28;20072;-70
2023/03/11 07:45:49;;;;;;;4.00;1.15;;;;;;;18.22;40.36;100971.56;5032765;28;20069;-69
2023/03/11 07:48:14;;;;;;;3.03;0.85;;;;;;;18.23;40.62;100975.91;5032712;28;20033;-69
2023/03/11 07:50:39;;;;;;;2.15;0.82;;;;;;;18.25;40.53;100981.03;5033337;28;20456;-68
2023/03/11 07:53:05;;;;;;;3.08;0.90;;;;;;;18.24;40.70;100985.47;5033404;28;20469;-68
2023/03/11 07:55:30;;;;;;;2.67;0.82;;;;;;;18.22;40.69;100992.66;5033431;28;20881;-67
2023/03/11 07:57:55;;;;;;;3.25;0.80;;;;;;;18.24;40.55;100996.00;5033304;28;20041;-67
2023/03/11 08:00:21;;;;;;;3.13;0.80;;;;;;;18.24;40.69;100993.38;5032725;28;20041;-69
2023/03/11 08:02:46;;;;;;;3.63;1.10;;;;;;;18.27;41.02;100990.50;5032792;28;20033;-70
2023/03/11 08:05:12;;;;;;;3.58;1.10;;;;;;;18.27;41.28;100994.94;5033078;28;20036;-69
2023/03/11 08:07:37;;;;;;;3.08;1.00;;;;;;;18.29;41.14;100991.25;5031920;28;20036;-69
2023/03/11 08:10:03;;;;;;;2.75;0.80;;;;;;;18.29;41.47;100990.38;5033425;28;20041;-69
2023/03/11 08:12:28;;;;;;;2.50;0.88;;;;;;;18.34;41.11;101006.69;5033378;28;20103;-68
2023/03/11 08:14:53;;;;;;;4.90;1.40;;;;;;;18.36;40.96;101004.78;5033000;28;20042;-68
2023/03/11 08:17:19;;;;;;;2.83;0.70;;;;;;;18.37;40.70;101008.25;5033054;28;20037;-68
2023/03/11 08:19:44;;;;;;;4.05;1.00;;;;;;;18.37;41.12;101008.25;5032697;28;20056;-68
2023/03/11 08:22:09;;;;;;;4.32;1.17;;;;;;;18.37;41.15;101001.16;5034202;28;20086;-68
2023/03/11 08:24:35;;;;;;;4.13;0.98;;;;;;;18.35;41.14;101007.53;5034038;28;20063;-69
2023/03/11 08:27:00;;;;;;;2.88;0.90;;;;;;;18.35;41.19;101005.72;5034276;28;20051;-69
2023/03/11 08:29:26;;;;;;;2.00;0.90;;;;;;;18.36;41.32;101004.78;5030488;28;20130;-68
2023/03/11 08:31:52;;;;;;;2.30;0.80;;;;;;;18.41;41.03;101012.31;5033584;28;20095;-69
2023/03/11 08:34:17;;;;;;;3.28;0.90;;;;;;;18.43;41.09;101011.22;5034267;28;20036;-69
2023/03/11 08:36:42;;;;;;;4.57;0.80;;;;;;;18.42;41.15;101016.63;5032687;28;20037;-69
2023/03/11 08:39:08;;;;;;;5.82;0.95;;;;;;;18.41;41.07;101013.16;5033691;28;20035;-69
2023/03/11 08:41:34;;;;;;;4.15;0.85;;;;;;;18.43;41.27;101015.66;5032905;28;20312;-68
2023/03/11 08:43:59;;;;;;;6.93;1.70;;;;;;;18.44;41.33;101022.63;5032256;28;20120;-67
2023/03/11 08:46:29;;;;;;;2.72;0.80;;;;;;;18.45;41.47;101021.66;5032390;28;20063;-67
2023/03/11 08:48:55;;;;;;;5.22;1.13;;;;;;;18.45;41.40;101027.78;5033017;28;20032;-67
2023/03/11 08:51:22;;;;;;;3.53;1.00;;;;;;;18.47;41.66;101039.06;5033056;28;20091;-67
2023/03/11 08:53:47;;;;;;;3.30;0.90;;;;;;;18.48;41.58;101034.59;5031976;28;20143;-67
2023/03/11 08:56:13;;;;;;;3.10;0.80;;;;;;;18.46;41.62;101029.44;5032516;28;20540;-67
2023/03/11 08:58:38;;;;;;;3.55;1.08;;;;;;;18.48;41.69;101039.88;5032333;28;20540;-67
2023/03/11 09:01:05;;;;;;;4.07;1.00;;;;;;;18.46;41.76;101045.28;5031822;28;20025;-68
2023/03/11 09:03:32;;;;;;;2.40;0.80;;;;;;;18.51;41.97;101050.19;5031139;28;20037;-66
2023/03/11 09:05:59;;;;;;;3.00;0.88;;;;;;;18.49;41.95;101052.97;5031932;28;20029;-66
2023/03/11 09:08:24;;;;;;;2.05;0.70;;;;;;;18.51;41.90;101047.56;5031523;28;20043;-68
2023/03/11 09:10:50;;;;;;;5.60;1.00;;;;;;;18.55;41.81;101046.38;5032243;28;20037;-67
2023/03/11 09:13:15;;;;;;;2.73;0.80;;;;;;;18.50;41.92;101032.72;5031643;28;20037;-68
2023/03/11 09:15:40;;;;;;;7.70;1.00;;;;;;;18.54;41.55;101043.84;5032415;28;20266;-68
2023/03/11 09:18:07;;;;;;;2.45;0.85;;;;;;;18.56;41.67;101042.75;5032144;28;20485;-69
2023/03/11 09:20:36;;;;;;;3.67;0.73;;;;;;;18.57;41.80;101048.88;5031878;28;20045;-69
2023/03/11 09:23:01;;;;;;;2.53;0.75;;;;;;;18.57;41.69;101059.44;5031951;28;20030;-68
2023/03/11 09:25:26;;;;;;;2.50;0.75;;;;;;;18.53;41.72;101053.53;5032436;28;20025;-68
2023/03/11 09:27:52;;;;;;;3.80;0.75;;;;;;;18.56;41.85;101057.75;5031502;28;20037;-67
2023/03/11 09:30:17;;;;;;;3.10;0.88;;;;;;;18.59;41.86;101060.16;5030933;28;20035;-68
2023/03/11 09:32:42;;;;;;;3.08;0.80;;;;;;;18.59;41.53;101068.06;5031715;28;20029;-68
2023/03/11 09:35:08;;;;;;;2.08;0.80;;;;;;;18.62;41.61;101075.75;5031290;28;20064;-69
2023/03/11 09:37:34;;;;;;;2.20;0.70;;;;;;;18.64;41.75;101068.53;5031282;28;20068;-64
2023/03/11 09:39:59;;;;;;;3.15;1.00;;;;;;;18.62;41.54;101063.38;5031124;28;20421;-68
2023/03/11 09:42:36;;;;;;;2.60;0.75;;;;;;;18.59;41.35;101050.41;5031194;28;20116;-69
2023/03/11 09:45:12;;;;;;;1.88;0.70;;;;;;;18.64;41.94;101063.25;5028469;28;20064;-71
2023/03/11 09:48:02;;;;;;;3.17;0.80;;;;;;;18.67;42.11;101058.59;5030537;28;20051;-70
2023/03/11 09:50:34;;;;;;;4.00;0.70;;;;;;;18.70;42.04;101068.03;5029911;28;20040;-67
2023/03/11 09:53:21;;;;;;;2.38;0.70;;;;;;;18.72;41.82;101073.22;5029067;28;20033;-68
2023/03/11 09:55:52;;;;;;;2.33;0.77;;;;;;;18.68;41.76;101068.16;5030117;28;20068;-68
2023/03/11 09:58:38;;;;;;;3.92;0.63;;;;;;;18.71;41.72;101069.72;5030299;28;20037;-71
2023/03/11 10:01:36;;;;;;;4.00;0.80;;;;;;;18.72;41.64;101071.41;5030447;28;20037;-67
2023/03/11 10:04:15;;;;;;;3.80;0.80;;;;;;;18.74;41.85;101074.78;5031308;28;20069;-67
2023/03/11 10:06:44;;;;;;;4.88;0.70;;;;;;;18.76;41.74;101069.38;5031783;28;20033;-70
2023/03/11 10:09:12;;;;;;;5.32;0.90;;;;;;;18.75;41.86;101065.88;5030746;28;20064;-68
2023/03/11 10:12:18;;;;;;;1.70;0.70;;;;;;;18.74;42.25;101069.50;5030278;28;20037;-68
2023/03/11 10:15:01;;;;;;;3.25;0.70;;;;;;;18.72;42.26;101065.28;5030581;28;20037;-68
2023/03/11 10:17:45;;;;;;;3.00;1.13;;;;;;;18.76;42.19;101069.38;5030489;28;20029;-70
2023/03/11 10:20:21;;;;;;;2.17;0.60;;;;;;;18.79;42.40;101069.13;5030768;28;20056;-67
2023/03/11 10:23:06;;;;;;;3.00;0.90;;;;;;;18.79;42.72;101067.31;5030469;28;20278;-68
2023/03/11 10:26:10;;;;;;;2.80;0.60;;;;;;;18.89;42.83;101083.28;5018950;28;20045;-66
2023/03/11 10:28:50;;;;;;;3.55;0.80;;;;;;;18.90;42.78;101082.31;5030431;28;20068;-68
2023/03/11 10:31:36;;;;;;;2.88;0.80;;;;;;;18.95;42.50;101090.72;5033377;28;20040;-68
2023/03/11 10:34:23;;;;;;;1.75;0.70;;;;;;;18.90;42.54;101087.59;5034190;28;20815;-68
2023/03/11 10:37:05;;;;;;;2.88;0.82;;;;;;;18.94;42.59;101082.91;5028367;28;20287;-68
2023/03/11 10:39:31;;;;;;;3.20;0.70;;;;;;;18.95;42.64;101090.72;5032520;28;20435;-70
2023/03/11 10:42:00;;;;;;;2.47;0.60;;;;;;;18.94;42.72;101093.47;5032596;28;20140;-65
2023/03/11 10:44:36;;;;;;;3.15;1.10;;;;;;;18.99;42.75;101101.84;5034363;28;20488;-66
2023/03/11 10:47:02;;;;;;;3.97;0.70;;;;;;;19.01;42.24;101100.78;5033431;28;20860;-66
2023/03/11 10:49:27;;;;;;;1.77;0.65;;;;;;;19.01;42.49;101099.97;5032409;28;20045;-67
2023/03/11 10:51:54;;;;;;;5.35;0.75;;;;;;;18.98;42.35;101095.75;5032483;28;20033;-68
2023/03/11 10:54:45;;;;;;;7.57;0.95;;;;;;;19.05;42.71;101098.72;5033424;28;20555;-67
2023/03/11 10:57:19;;;;;;;3.28;0.82;;;;;;;19.04;42.92;101083.81;5033650;28;20072;-67
2023/03/11 10:59:44;;;;;;;4.63;1.08;;;;;;;19.10;43.00;101091.25;5034103;28;20493;-66
2023/03/11 11:02:31;;;;;;;2.47;0.70;;;;;;;19.12;42.92;101096.41;5033260;28;20033;-67
2023/03/11 11:05:17;;;;;;;3.30;0.60;;;;;;;19.11;42.23;101086.84;5033713;28;20094;-69
2023/03/11 11:08:01;;;;;;;4.68;0.70;;;;;;;19.12;42.33;101093.78;5033390;28;20033;-68
2023/03/11 11:10:27;;;;;;;3.97;0.70;;;;;;;19.18;42.17;101094.13;5033856;28;20098;-66
2023/03/11 11:12:53;;;;;;;3.13;0.55;;;;;;;19.17;41.89;101094.25;5033459;28;20484;-68
2023/03/11 11:15:39;;;;;;;3.10;0.55;;;;;;;19.16;41.84;101093.41;5033705;28;20021;-66
2023/03/11 11:18:15;;;;;;;2.83;0.52;;;;;;;19.16;42.29;101088.13;5032713;28;20836;-66
2023/03/11 11:20:55;;;;;;;4.70;0.63;;;;;;;19.17;41.61;101096.91;5032243;28;20413;-69
2023/03/11 11:23:32;;;;;;;3.17;0.93;;;;;;;19.17;41.67;101097.72;5033586;28;20045;-64
2023/03/11 11:26:03;;;;;;;6.88;0.73;;;;;;;19.24;43.21;101099.88;5033108;28;20048;-67
2023/03/11 11:28:29;;;;;;;3.90;0.70;;;;;;;19.23;43.62;101092.91;5033932;28;20481;-70